Wetterstation Vordersexau
Wetterdaten: Woche 10.11.14 - 16.11.14 (KW46)
Datum Zeit Temp. A. Feuchte A. Luftdruck Regen Wind Richtung Taupunkt Windchill Windben
10.11.2014 00:00 6,0 C 85 % 981,6 hPa 0,0 l/m 0,0 km/h S-SW 3,7 C 6,0 C 0,0 km/h
10.11.2014 01:00 5,4 C 85 % 982,4 hPa 0,0 l/m 0,0 km/h S-SW 3,1 C 5,4 C 0,0 km/h
10.11.2014 02:00 5,8 C 84 % 982,4 hPa 0,0 l/m 0,0 km/h S-SW 3,3 C 5,8 C 0,0 km/h
10.11.2014 03:00 5,9 C 84 % 982,5 hPa 0,0 l/m 0,0 km/h S-SW 3,4 C 5,9 C 0,0 km/h
10.11.2014 04:00 5,8 C 84 % 983,0 hPa 0,0 l/m 0,0 km/h S 3,3 C 5,8 C 0,0 km/h
10.11.2014 05:00 6,5 C 83 % 982,8 hPa 0,0 l/m 0,0 km/h SO 3,8 C 6,5 C 0,0 km/h
10.11.2014 06:00 6,8 C 82 % 982,9 hPa 0,0 l/m 0,0 km/h SO 3,9 C 6,8 C 0,0 km/h
10.11.2014 07:00 6,8 C 82 % 983,3 hPa 0,0 l/m 0,0 km/h SO 3,9 C 6,8 C 0,0 km/h
10.11.2014 08:00 7,6 C 82 % 983,9 hPa 0,0 l/m 0,0 km/h SO 4,7 C 7,6 C 0,0 km/h
10.11.2014 09:00 8,1 C 82 % 983,9 hPa 0,2 l/m 0,0 km/h SO 5,2 C 8,1 C 0,0 km/h
10.11.2014 10:00 8,9 C 82 % 983,8 hPa 0,2 l/m 0,0 km/h SO 6,0 C 8,9 C 0,0 km/h
10.11.2014 11:00 10,4 C 82 % 983,7 hPa 0,0 l/m 0,6 km/h SO 7,5 C 10,4 C 0,4 km/h
10.11.2014 12:00 10,9 C 83 % 983,6 hPa 0,2 l/m 0,0 km/h SO 8,1 C 10,9 C 0,0 km/h
10.11.2014 13:00 11,0 C 84 % 983,2 hPa 0,2 l/m 0,0 km/h SO 8,4 C 11,0 C 0,0 km/h
10.11.2014 14:00 11,9 C 85 % 982,7 hPa 0,0 l/m 0,0 km/h SO 9,5 C 11,9 C 0,0 km/h
10.11.2014 15:00 10,9 C 85 % 982,9 hPa 0,0 l/m 0,0 km/h SO 8,5 C 10,9 C 0,0 km/h
10.11.2014 16:00 10,1 C 85 % 982,7 hPa 0,0 l/m 0,0 km/h SO 7,7 C 10,1 C 0,0 km/h
10.11.2014 17:00 9,2 C 85 % 982,6 hPa 0,0 l/m 0,0 km/h SO 6,8 C 9,2 C 0,0 km/h
10.11.2014 18:00 8,7 C 85 % 982,5 hPa 0,0 l/m 0,0 km/h SO 6,3 C 8,7 C 0,0 km/h
10.11.2014 19:00 7,8 C 85 % 981,8 hPa 0,0 l/m 0,0 km/h SO 5,4 C 7,8 C 0,0 km/h
10.11.2014 20:00 7,4 C 84 % 982,3 hPa 0,0 l/m 0,0 km/h O-SO 4,9 C 7,4 C 0,0 km/h
10.11.2014 21:00 6,9 C 84 % 982,1 hPa 0,0 l/m 0,0 km/h O-NO 4,4 C 6,9 C 0,0 km/h
10.11.2014 22:00 6,5 C 83 % 981,9 hPa 0,0 l/m 0,0 km/h O-SO 3,8 C 6,5 C 0,0 km/h
10.11.2014 23:00 5,2 C 83 % 981,8 hPa 0,0 l/m 0,0 km/h O 2,6 C 5,2 C 0,0 km/h
11.11.2014 00:00 4,9 C 83 % 982,0 hPa 0,0 l/m 0,0 km/h O 2,3 C 4,9 C 0,0 km/h
11.11.2014 01:00 4,7 C 83 % 981,2 hPa 0,0 l/m 0,0 km/h O 2,1 C 4,7 C 0,0 km/h
11.11.2014 02:00 5,7 C 82 % 981,4 hPa 0,0 l/m 0,0 km/h O-NO 2,9 C 5,7 C 0,0 km/h
11.11.2014 03:00 6,2 C 81 % 980,6 hPa 0,0 l/m 0,0 km/h SO 3,2 C 6,2 C 0,0 km/h
11.11.2014 04:00 5,5 C 81 % 980,1 hPa 0,0 l/m 0,0 km/h SO 2,5 C 5,5 C 0,0 km/h
11.11.2014 05:00 5,8 C 80 % 979,2 hPa 0,0 l/m 0,0 km/h SO 2,6 C 5,8 C 0,0 km/h
11.11.2014 06:00 6,0 C 80 % 979,0 hPa 0,0 l/m 0,0 km/h SO 2,8 C 6,0 C 0,0 km/h
11.11.2014 07:00 6,3 C 79 % 979,1 hPa 0,0 l/m 0,0 km/h SO 2,9 C 6,3 C 0,0 km/h
11.11.2014 08:00 6,5 C 78 % 978,7 hPa 0,0 l/m 0,0 km/h S-SO 2,9 C 6,5 C 0,0 km/h
11.11.2014 09:00 7,5 C 76 % 978,0 hPa 0,0 l/m 0,0 km/h W 3,5 C 7,5 C 0,0 km/h
11.11.2014 10:00 7,8 C 77 % 978,0 hPa 0,0 l/m 0,0 km/h W-NW 4,0 C 7,8 C 0,0 km/h
11.11.2014 11:00 7,7 C 78 % 977,5 hPa 0,0 l/m 0,0 km/h W 4,1 C 7,7 C 0,0 km/h
11.11.2014 12:00 7,8 C 77 % 976,5 hPa 0,0 l/m 0,0 km/h W 4,0 C 7,8 C 0,0 km/h
11.11.2014 13:00 8,1 C 79 % 976,2 hPa 0,0 l/m 0,0 km/h W-NW 4,7 C 8,1 C 0,0 km/h
11.11.2014 14:00 8,0 C 80 % 975,8 hPa 0,0 l/m 0,0 km/h W 4,8 C 8,0 C 0,0 km/h
11.11.2014 15:00 8,0 C 81 % 975,2 hPa 0,0 l/m 0,0 km/h NW 4,9 C 8,0 C 0,0 km/h
11.11.2014 16:00 7,6 C 82 % 975,3 hPa 0,0 l/m 0,0 km/h NW 4,7 C 7,6 C 0,0 km/h
11.11.2014 17:00 7,5 C 82 % 974,8 hPa 0,0 l/m 0,0 km/h NW 4,6 C 7,5 C 0,0 km/h
11.11.2014 18:00 7,3 C 81 % 975,0 hPa 0,0 l/m 1,3 km/h W-NW 4,3 C 7,3 C 0,7 km/h
11.11.2014 19:00 6,9 C 80 % 975,1 hPa 0,0 l/m 0,0 km/h W-NW 3,7 C 6,9 C 0,0 km/h
11.11.2014 20:00 6,9 C 79 % 975,3 hPa 0,0 l/m 0,0 km/h W-NW 3,5 C 6,9 C 0,0 km/h
11.11.2014 21:00 7,0 C 79 % 974,9 hPa 0,0 l/m 0,0 km/h W-NW 3,6 C 7,0 C 0,0 km/h
11.11.2014 22:00 6,9 C 78 % 974,7 hPa 0,0 l/m 0,0 km/h W-NW 3,3 C 6,9 C 0,0 km/h
11.11.2014 23:00 7,0 C 78 % 974,7 hPa 0,0 l/m 0,0 km/h SO 3,4 C 7,0 C 0,0 km/h
12.11.2014 00:00 7,0 C 78 % 974,6 hPa 0,0 l/m 0,0 km/h SO 3,4 C 7,0 C 0,0 km/h
12.11.2014 01:00 6,9 C 78 % 974,8 hPa 0,0 l/m 0,0 km/h W 3,3 C 6,9 C 0,0 km/h
12.11.2014 02:00 6,6 C 77 % 974,7 hPa 0,0 l/m 0,0 km/h SO 2,9 C 6,6 C 0,0 km/h
12.11.2014 03:00 6,7 C 78 % 974,3 hPa 0,0 l/m 0,0 km/h S-SO 3,1 C 6,7 C 0,0 km/h
12.11.2014 04:00 6,2 C 78 % 974,1 hPa 0,0 l/m 0,0 km/h S-SO 2,7 C 6,2 C 0,0 km/h
12.11.2014 05:00 6,6 C 77 % 974,4 hPa 0,0 l/m 0,0 km/h S-SO 2,9 C 6,6 C 0,0 km/h
12.11.2014 06:00 6,6 C 77 % 974,4 hPa 0,0 l/m 0,0 km/h S 2,9 C 6,6 C 0,0 km/h
12.11.2014 07:00 6,6 C 76 % 975,1 hPa 0,0 l/m 0,0 km/h S 2,7 C 6,6 C 0,0 km/h
12.11.2014 08:00 6,8 C 75 % 975,7 hPa 0,0 l/m 0,0 km/h S 2,7 C 6,8 C 0,0 km/h
12.11.2014 09:00 7,4 C 75 % 975,9 hPa 0,0 l/m 0,0 km/h S 3,3 C 7,4 C 0,0 km/h
12.11.2014 10:00 7,9 C 75 % 976,2 hPa 0,0 l/m 0,0 km/h S 3,7 C 7,9 C 0,0 km/h
12.11.2014 11:00 8,2 C 74 % 976,4 hPa 0,0 l/m 0,0 km/h S 3,8 C 8,2 C 0,0 km/h
12.11.2014 12:00 8,9 C 77 % 976,3 hPa 0,0 l/m 0,0 km/h O 5,1 C 8,9 C 0,0 km/h
12.11.2014 13:00 10,4 C 82 % 976,6 hPa 0,0 l/m 0,0 km/h O-SO 7,5 C 10,4 C 0,0 km/h
12.11.2014 14:00 9,6 C 85 % 976,8 hPa 0,0 l/m 0,0 km/h O-SO 7,2 C 9,6 C 0,0 km/h
12.11.2014 15:00 9,2 C 85 % 977,0 hPa 0,0 l/m 0,0 km/h O-SO 6,8 C 9,2 C 0,0 km/h
12.11.2014 16:00 8,9 C 84 % 977,2 hPa 0,0 l/m 0,0 km/h O-SO 6,3 C 8,9 C 0,0 km/h
12.11.2014 17:00 8,7 C 84 % 977,6 hPa 0,2 l/m 0,0 km/h O-SO 6,2 C 8,7 C 0,0 km/h
12.11.2014 18:00 8,6 C 84 % 978,4 hPa 0,0 l/m 0,0 km/h O-SO 6,1 C 8,6 C 0,0 km/h
12.11.2014 19:00 8,6 C 83 % 978,6 hPa 0,4 l/m 0,0 km/h O-SO 5,9 C 8,6 C 0,0 km/h
12.11.2014 20:00 8,9 C 82 % 979,2 hPa 0,2 l/m 0,0 km/h O-SO 6,0 C 8,9 C 0,0 km/h
12.11.2014 21:00 8,8 C 81 % 979,9 hPa 0,6 l/m 0,0 km/h O-SO 5,7 C 8,8 C 0,0 km/h
12.11.2014 22:00 8,6 C 81 % 980,4 hPa 0,4 l/m 0,0 km/h O-SO 5,5 C 8,6 C 0,0 km/h
12.11.2014 23:00 8,8 C 81 % 981,0 hPa 0,6 l/m 0,0 km/h O-SO 5,7 C 8,8 C 0,0 km/h
13.11.2014 00:00 8,8 C 81 % 981,6 hPa 0,6 l/m 0,0 km/h O-SO 5,7 C 8,8 C 0,0 km/h
13.11.2014 01:00 9,1 C 80 % 982,0 hPa 0,6 l/m 0,0 km/h O-SO 5,8 C 9,1 C 0,0 km/h
13.11.2014 02:00 9,2 C 80 % 982,1 hPa 0,4 l/m 0,0 km/h O-SO 5,9 C 9,2 C 0,0 km/h
13.11.2014 03:00 9,3 C 80 % 982,3 hPa 0,0 l/m 0,0 km/h O-SO 6,0 C 9,3 C 0,0 km/h
13.11.2014 04:00 9,1 C 80 % 982,6 hPa 0,0 l/m 0,0 km/h O-SO 5,8 C 9,1 C 0,0 km/h
13.11.2014 05:00 9,2 C 79 % 982,8 hPa 0,0 l/m 0,0 km/h O-SO 5,8 C 9,2 C 0,0 km/h
13.11.2014 06:00 9,2 C 79 % 982,6 hPa 0,0 l/m 0,0 km/h O-SO 5,8 C 9,2 C 0,0 km/h
13.11.2014 07:00 9,2 C 79 % 982,8 hPa 0,0 l/m 0,0 km/h O-SO 5,8 C 9,2 C 0,0 km/h
13.11.2014 08:00 9,4 C 78 % 982,7 hPa 0,0 l/m 0,0 km/h W 5,8 C 9,4 C 0,0 km/h
13.11.2014 09:00 14,4 C 83 % 982,7 hPa 0,0 l/m 0,0 km/h W-NW 11,5 C 14,4 C 0,0 km/h
13.11.2014 10:00 11,6 C 85 % 983,2 hPa 0,0 l/m 0,0 km/h W 9,2 C 11,6 C 0,0 km/h
13.11.2014 11:00 11,4 C 86 % 983,3 hPa 0,0 l/m 0,0 km/h NW 9,1 C 11,4 C 0,0 km/h
13.11.2014 12:00 12,1 C 86 % 982,8 hPa 0,0 l/m 0,0 km/h W 9,8 C 12,1 C 0,0 km/h
13.11.2014 13:00 10,1 C 85 % 983,1 hPa 0,0 l/m 0,0 km/h W-SW 7,7 C 10,1 C 0,0 km/h
13.11.2014 14:00 10,2 C 84 % 982,7 hPa 0,0 l/m 0,0 km/h W 7,6 C 10,2 C 0,0 km/h
13.11.2014 15:00 9,9 C 83 % 983,0 hPa 0,0 l/m 0,0 km/h W 7,2 C 9,9 C 0,0 km/h
13.11.2014 16:00 9,6 C 82 % 983,0 hPa 0,0 l/m 0,0 km/h W 6,7 C 9,6 C 0,0 km/h
13.11.2014 17:00 9,6 C 81 % 983,3 hPa 0,0 l/m 0,0 km/h W 6,5 C 9,6 C 0,0 km/h
13.11.2014 18:00 9,6 C 81 % 983,2 hPa 0,0 l/m 0,0 km/h W 6,5 C 9,6 C 0,0 km/h
13.11.2014 19:00 9,5 C 81 % 983,4 hPa 0,0 l/m 0,0 km/h NW 6,4 C 9,5 C 0,0 km/h
13.11.2014 20:00 9,4 C 80 % 983,1 hPa 0,0 l/m 0,0 km/h NW 6,1 C 9,4 C 0,0 km/h
13.11.2014 21:00 9,4 C 80 % 982,7 hPa 0,0 l/m 0,0 km/h W-NW 6,1 C 9,4 C 0,0 km/h
13.11.2014 22:00 9,3 C 79 % 982,4 hPa 0,0 l/m 0,0 km/h W-NW 5,8 C 9,3 C 0,0 km/h
13.11.2014 23:00 9,3 C 79 % 982,0 hPa 0,0 l/m 0,0 km/h W-SW 5,8 C 9,3 C 0,0 km/h
14.11.2014 00:00 9,2 C 77 % 982,2 hPa 0,0 l/m 0,0 km/h W-SW 5,4 C 9,2 C 0,0 km/h
14.11.2014 01:00 9,1 C 77 % 981,9 hPa 0,0 l/m 0,0 km/h W-SW 5,3 C 9,1 C 0,0 km/h
14.11.2014 02:00 9,0 C 76 % 981,6 hPa 0,0 l/m 0,0 km/h SO 5,0 C 9,0 C 0,0 km/h
14.11.2014 03:00 8,6 C 77 % 980,9 hPa 0,0 l/m 0,0 km/h SO 4,8 C 8,6 C 0,0 km/h
14.11.2014 04:00 7,9 C 77 % 980,4 hPa 0,0 l/m 0,0 km/h SO 4,1 C 7,9 C 0,0 km/h
14.11.2014 05:00 7,4 C 77 % 980,4 hPa 0,0 l/m 5,8 km/h O-SO 3,6 C 7,4 C 3,2 km/h
14.11.2014 06:00 7,0 C 78 % 980,2 hPa 0,0 l/m 0,0 km/h SO 3,4 C 7,0 C 0,0 km/h
14.11.2014 07:00 6,5 C 78 % 980,0 hPa 0,0 l/m 0,0 km/h SO 2,9 C 6,5 C 0,0 km/h
14.11.2014 08:00 6,9 C 77 % 980,3 hPa 0,0 l/m 2,6 km/h SO 3,2 C 6,9 C 1,4 km/h
14.11.2014 09:00 7,9 C 78 % 980,4 hPa 0,0 l/m 0,0 km/h S-SO 4,3 C 7,9 C 0,0 km/h
14.11.2014 10:00 9,4 C 84 % 980,1 hPa 0,0 l/m 0,0 km/h NW 6,8 C 9,4 C 0,0 km/h
14.11.2014 11:00 10,9 C 86 % 979,3 hPa 0,0 l/m 0,0 km/h W-SW 8,7 C 10,9 C 0,0 km/h
14.11.2014 12:00 10,4 C 86 % 979,2 hPa 0,0 l/m 0,0 km/h S 8,2 C 10,4 C 0,0 km/h
14.11.2014 13:00 10,7 C 86 % 978,7 hPa 0,0 l/m 0,0 km/h O-SO 8,5 C 10,7 C 0,0 km/h
14.11.2014 14:00 10,9 C 85 % 978,5 hPa 0,0 l/m 0,0 km/h SO 8,5 C 10,9 C 0,0 km/h
14.11.2014 15:00 9,9 C 86 % 978,7 hPa 0,0 l/m 3,2 km/h O-SO 7,7 C 9,9 C 1,8 km/h
14.11.2014 16:00 8,2 C 86 % 978,3 hPa 0,0 l/m 32,4 km/h NO 6,0 C -2,4 C 18,0 km/h
14.11.2014 17:00 7,6 C 86 % 977,7 hPa 0,0 l/m 0,0 km/h O-SO 5,4 C 7,6 C 0,0 km/h
14.11.2014 18:00 7,9 C 85 % 977,3 hPa 0,0 l/m 0,0 km/h O-SO 5,5 C 7,9 C 0,0 km/h
14.11.2014 19:00 6,8 C 85 % 977,4 hPa 0,0 l/m 0,0 km/h O-SO 4,5 C 6,8 C 0,0 km/h
14.11.2014 20:00 7,2 C 84 % 976,5 hPa 0,0 l/m 0,0 km/h N-NO 4,7 C 7,2 C 0,0 km/h
14.11.2014 21:00 7,9 C 83 % 975,5 hPa 0,0 l/m 0,0 km/h W 5,2 C 7,9 C 0,0 km/h
14.11.2014 22:00 7,6 C 81 % 976,2 hPa 0,0 l/m 0,0 km/h W 4,6 C 7,6 C 0,0 km/h
14.11.2014 23:00 7,6 C 81 % 975,6 hPa 0,0 l/m 0,0 km/h W 4,6 C 7,6 C 0,0 km/h
15.11.2014 00:00 7,6 C 81 % 974,9 hPa 0,0 l/m 0,0 km/h W 4,6 C 7,6 C 0,0 km/h
15.11.2014 01:00 7,8 C 80 % 973,0 hPa 0,0 l/m 0,0 km/h W 4,6 C 7,8 C 0,0 km/h
15.11.2014 02:00 7,0 C 79 % 972,7 hPa 0,0 l/m 1,8 km/h W-SW 3,6 C 7,0 C 1,8 km/h
15.11.2014 03:00 7,6 C 78 % 974,0 hPa 0,0 l/m 1,4 km/h S-SW 4,0 C 7,6 C 1,4 km/h
15.11.2014 04:00 7,9 C 77 % 974,3 hPa 0,0 l/m 0,0 km/h SO 4,1 C 7,9 C 0,0 km/h
15.11.2014 05:00 7,3 C 78 % 974,0 hPa 0,0 l/m 1,3 km/h SO 3,7 C 7,3 C 0,7 km/h
15.11.2014 06:00 7,1 C 77 % 974,7 hPa 0,0 l/m 0,0 km/h N-NO 3,3 C 7,1 C 0,0 km/h
15.11.2014 07:00 7,9 C 76 % 975,1 hPa 0,0 l/m 0,0 km/h N-NO 3,9 C 7,9 C 0,0 km/h
15.11.2014 08:00 9,4 C 73 % 975,7 hPa 0,0 l/m 0,0 km/h N-NO 4,8 C 9,4 C 0,0 km/h
15.11.2014 09:00 11,4 C 70 % 975,3 hPa 0,0 l/m 0,0 km/h W 6,1 C 11,4 C 0,0 km/h
15.11.2014 10:00 12,7 C 86 % 976,0 hPa 0,0 l/m 0,0 km/h SW 10,4 C 12,7 C 0,0 km/h
15.11.2014 11:00 13,3 C 85 % 974,9 hPa 0,0 l/m 0,0 km/h W-SW 10,8 C 13,3 C 0,0 km/h
15.11.2014 12:00 15,0 C 79 % 974,4 hPa 0,0 l/m 0,0 km/h SW 11,4 C 15,0 C 0,0 km/h
15.11.2014 13:00 11,9 C 82 % 974,0 hPa 0,0 l/m 0,0 km/h SO 8,9 C 11,9 C 0,0 km/h
15.11.2014 14:00 11,5 C 85 % 973,3 hPa 0,0 l/m 0,0 km/h SO 9,1 C 11,5 C 0,0 km/h
15.11.2014 15:00 10,6 C 85 % 973,0 hPa 0,0 l/m 0,0 km/h SO 8,2 C 10,6 C 0,0 km/h
15.11.2014 16:00 9,8 C 86 % 973,0 hPa 0,4 l/m 0,0 km/h SO 7,6 C 9,8 C 0,0 km/h
15.11.2014 17:00 9,3 C 86 % 972,3 hPa 0,6 l/m 0,0 km/h S-SO 7,1 C 9,3 C 0,0 km/h
15.11.2014 18:00 9,1 C 86 % 972,6 hPa 0,4 l/m 0,0 km/h S-SO 6,9 C 9,1 C 0,0 km/h
15.11.2014 19:00 9,3 C 85 % 972,9 hPa 1,0 l/m 0,0 km/h S-SO 6,9 C 9,3 C 0,0 km/h
15.11.2014 20:00 9,2 C 85 % 972,3 hPa 1,7 l/m 0,0 km/h SW 6,8 C 9,2 C 0,0 km/h
15.11.2014 21:00 9,2 C 84 % 972,3 hPa 0,6 l/m 0,0 km/h W-NW 6,6 C 9,2 C 0,0 km/h
15.11.2014 22:00 8,6 C 82 % 972,8 hPa 0,6 l/m 8,6 km/h SW 5,7 C 7,0 C 8,6 km/h
15.11.2014 23:00 8,5 C 81 % 973,0 hPa 0,8 l/m 0,0 km/h S 5,4 C 8,5 C 0,0 km/h
16.11.2014 00:00 7,6 C 81 % 972,9 hPa 0,6 l/m 1,8 km/h S 4,6 C 7,6 C 1,8 km/h
16.11.2014 01:00 7,4 C 80 % 973,3 hPa 0,8 l/m 0,0 km/h SW 4,2 C 7,4 C 0,0 km/h
16.11.2014 02:00 7,2 C 81 % 973,4 hPa 0,4 l/m 0,0 km/h S 4,2 C 7,2 C 0,0 km/h
16.11.2014 03:00 6,9 C 80 % 973,6 hPa 0,2 l/m 0,0 km/h S 3,7 C 6,9 C 0,0 km/h
16.11.2014 04:00 7,1 C 80 % 973,8 hPa 0,2 l/m 0,0 km/h S 3,9 C 7,1 C 0,0 km/h
16.11.2014 05:00 7,2 C 80 % 973,9 hPa 0,0 l/m 0,0 km/h S 4,0 C 7,2 C 0,0 km/h
16.11.2014 06:00 7,1 C 79 % 974,2 hPa 0,0 l/m 0,0 km/h NO 3,7 C 7,1 C 0,0 km/h
16.11.2014 07:00 7,2 C 79 % 974,3 hPa 0,0 l/m 0,0 km/h S 3,8 C 7,2 C 0,0 km/h
16.11.2014 08:00 8,3 C 78 % 974,4 hPa 0,2 l/m 10,4 km/h SO 4,7 C 5,5 C 5,8 km/h
16.11.2014 09:00 9,4 C 81 % 974,4 hPa 0,0 l/m 0,0 km/h S-SO 6,3 C 9,4 C 0,0 km/h
16.11.2014 10:00 10,6 C 86 % 974,6 hPa 0,0 l/m 0,0 km/h SO 8,4 C 10,6 C 0,0 km/h
16.11.2014 11:00 12,5 C 84 % 974,1 hPa 0,0 l/m 4,5 km/h S-SO 9,9 C 12,5 C 2,5 km/h
16.11.2014 12:00 16,5 C 73 % 973,7 hPa 0,0 l/m 8,4 km/h W 11,6 C 15,5 C 4,7 km/h
16.11.2014 13:00 13,3 C 75 % 973,2 hPa 0,0 l/m 43,4 km/h SO 9,0 C 3,4 C 24,1 km/h
16.11.2014 14:00 13,9 C 70 % 972,7 hPa 0,0 l/m 0,0 km/h SO 8,5 C 13,9 C 0,0 km/h
16.11.2014 15:00 11,0 C 80 % 972,8 hPa 0,0 l/m 24,6 km/h O-SO 7,7 C 3,3 C 13,7 km/h
16.11.2014 16:00 8,3 C 85 % 973,6 hPa 0,6 l/m 0,0 km/h O 5,9 C 8,3 C 0,0 km/h
16.11.2014 17:00 8,1 C 86 % 973,6 hPa 0,0 l/m 0,0 km/h O-SO 5,9 C 8,1 C 0,0 km/h
16.11.2014 18:00 7,8 C 86 % 973,9 hPa 0,0 l/m 0,0 km/h O-SO 5,6 C 7,8 C 0,0 km/h
16.11.2014 19:00 7,1 C 85 % 974,4 hPa 0,0 l/m 0,0 km/h O-NO 4,8 C 7,1 C 0,0 km/h
16.11.2014 20:00 6,8 C 85 % 974,3 hPa 0,0 l/m 0,0 km/h SO 4,5 C 6,8 C 0,0 km/h
16.11.2014 21:00 6,6 C 85 % 974,1 hPa 0,0 l/m 0,0 km/h O-SO 4,3 C 6,6 C 0,0 km/h
16.11.2014 22:00 7,3 C 84 % 974,4 hPa 0,0 l/m 4,7 km/h SO 4,8 C 7,3 C 4,7 km/h
16.11.2014 23:00 6,8 C 85 % 974,4 hPa 0,0 l/m 0,0 km/h SO 4,5 C 6,8 C 0,0 km/h
Min-Datum _ 11.11.14 15.11.14 15.11.14 - 10.11.14 - 11.11.14 14.11.14 10.11.14
_ Min-Zeit 01:53 09:53 17:53 - 00:53 - 01:53 16:53 00:53
Minimum _ 4,7 C 70 % 972,3 hPa - 0,0 km/h - 2,1 C -2,4 C 0,0 km/h
Max-Datum _ 16.11.14 13.11.14 10.11.14 15.11.14 16.11.14 - 16.11.14 16.11.14 16.11.14
_ Max-Zeit 12:53 11:53 08:53 20:53 13:53 - 12:53 12:53 13:53
Maximum _ 16,5 C 86 % 983,9 hPa 1,7 l/m 43,4 km/h
SO
- 11,6 C 15,5 C 24,1 km/h
SO
Durchschnitt _ 8,5 C 81 % 978,0 hPa #14,3 l/m 0,9 km/h SO 5,4 C 8,3 C 0,6 km/h
www.sexauwetter.de